Time;durP1;ratioP1;P1;durP2;ratioP2;P2;SDS_P1;SDS_P2;PMS_P1;PMS_P2;Temp;Humidity;BMP_temperature;BMP_pressure;BME280_temperature;BME280_humidity;BME280_pressure;Samples;Min_cycle;Max_cycle;Signal;HPM_P1;HPM_P2
2022/04/03 00:01:29;;;;;;;;;;;2.60;94.90;;;;;;5060302;28;20415;-76
2022/04/03 00:03:56;;;;;;;;;;;2.60;94.90;;;;;;5064708;28;19935;-77
2022/04/03 00:06:22;;;;;;;;;;;2.60;94.90;;;;;;5065068;28;19932;-77
2022/04/03 00:08:49;;;;;;;;;;;2.60;94.90;;;;;;5058093;28;20032;-77
2022/04/03 00:11:16;;;;;;;;;;;2.60;94.90;;;;;;5063196;28;19935;-78
2022/04/03 00:13:43;;;;;;;;;;;2.50;95.20;;;;;;5060458;28;19932;-77
2022/04/03 00:16:10;;;;;;;;;;;2.50;94.90;;;;;;5062030;28;19928;-76
2022/04/03 00:18:38;;;;;;;;;;;2.50;94.90;;;;;;5062284;28;19986;-77
2022/04/03 00:21:05;;;;;;;;;;;2.50;94.90;;;;;;5062627;28;20537;-77
2022/04/03 00:23:32;;;;;;;;;;;2.50;94.90;;;;;;5060522;28;19932;-76
2022/04/03 00:25:58;;;;;;;;;;;2.50;94.90;;;;;;5061110;28;19947;-77
2022/04/03 00:28:28;;;;;;;;;;;2.50;94.90;;;;;;5059952;28;19935;-77
2022/04/03 00:30:55;;;;;;;;;;;2.50;94.90;;;;;;5073202;28;20036;-77
2022/04/03 00:33:21;;;;;;;;;;;2.40;94.90;;;;;;5066032;28;20829;-77
2022/04/03 00:35:50;;;;;;;;;;;2.50;94.90;;;;;;5064495;28;19951;-77
2022/04/03 00:38:17;;;;;;;;;;;2.40;94.90;;;;;;5062814;28;20650;-76
2022/04/03 00:40:44;;;;;;;;;;;2.40;94.90;;;;;;5063050;28;19944;-77
2022/04/03 00:43:11;;;;;;;;;;;2.40;95.00;;;;;;5063479;28;19936;-77
2022/04/03 00:45:39;;;;;;;;;;;2.40;95.00;;;;;;5067534;28;19940;-78
2022/04/03 00:48:06;;;;;;;;;;;2.30;95.00;;;;;;5057563;28;19932;-77
2022/04/03 00:50:33;;;;;;;;;;;2.40;95.00;;;;;;5057190;28;19947;-76
2022/04/03 00:53:00;;;;;;;;;;;2.40;95.00;;;;;;5064215;28;19928;-77
2022/04/03 00:55:27;;;;;;;;;;;2.40;95.10;;;;;;5062545;28;19935;-77
2022/04/03 00:57:54;;;;;;;;;;;2.30;95.00;;;;;;5066023;28;19929;-77
2022/04/03 01:00:20;;;;;;;;;;;2.30;95.10;;;;;;5060531;28;20505;-76
2022/04/03 01:02:47;;;;;;;;;;;2.30;95.10;;;;;;5064576;28;20312;-78
2022/04/03 01:05:14;;;;;;;;;;;2.30;95.10;;;;;;5074961;28;19928;-77
2022/04/03 01:07:41;;;;;;;;;;;2.30;95.10;;;;;;5071510;28;19937;-77
2022/04/03 01:10:09;;;;;;;;;;;2.30;95.10;;;;;;5065751;28;20621;-77
2022/04/03 01:12:39;;;;;;;;;;;2.30;95.20;;;;;;5062450;28;19936;-77
2022/04/03 01:15:06;;;;;;;;;;;2.30;95.20;;;;;;5065646;28;19936;-77
2022/04/03 01:17:32;;;;;;;;;;;2.30;95.20;;;;;;5066002;28;19928;-75
2022/04/03 01:19:59;;;;;;;;;;;2.30;95.20;;;;;;5062052;28;19929;-77
2022/04/03 01:22:25;;;;;;;;;;;2.30;95.20;;;;;;5060798;28;19951;-77
2022/04/03 01:24:54;;;;;;;;;;;2.30;95.20;;;;;;5061693;28;19936;-78
2022/04/03 01:27:21;;;;;;;;;;;2.30;95.20;;;;;;5067513;28;20287;-77
2022/04/03 01:29:48;;;;;;;;;;;2.30;95.20;;;;;;5061984;28;19939;-77
2022/04/03 01:32:14;;;;;;;;;;;2.20;95.20;;;;;;5068317;28;19963;-77
2022/04/03 01:34:41;;;;;;;;;;;2.20;95.20;;;;;;5064081;28;20019;-77
2022/04/03 01:37:08;;;;;;;;;;;2.30;95.20;;;;;;5061356;28;19934;-78
2022/04/03 01:39:34;;;;;;;;;;;2.20;95.20;;;;;;5067101;28;19934;-76
2022/04/03 01:42:03;;;;;;;;;;;2.30;95.20;;;;;;5065932;28;19935;-78
2022/04/03 01:44:29;;;;;;;;;;;2.20;95.20;;;;;;5061028;28;19928;-77
2022/04/03 01:46:56;;;;;;;;;;;2.20;95.20;;;;;;5057777;28;19935;-78
2022/04/03 01:49:23;;;;;;;;;;;2.20;95.20;;;;;;5061980;28;19928;-75
2022/04/03 01:51:49;;;;;;;;;;;2.30;95.30;;;;;;5062707;28;19928;-77
2022/04/03 01:54:16;;;;;;;;;;;2.20;95.30;;;;;;5067158;28;19928;-77
2022/04/03 01:56:44;;;;;;;;;;;2.20;95.30;;;;;;5064838;28;19932;-77
2022/04/03 01:59:12;;;;;;;;;;;2.20;95.30;;;;;;5065138;28;19975;-77
2022/04/03 02:01:39;;;;;;;;;;;2.20;95.30;;;;;;5063662;28;19940;-79
2022/04/03 02:04:05;;;;;;;;;;;2.20;95.30;;;;;;5068282;28;19929;-77
2022/04/03 02:06:32;;;;;;;;;;;2.20;95.30;;;;;;5065165;28;19928;-76
2022/04/03 02:09:01;;;;;;;;;;;2.20;95.30;;;;;;5062301;28;19935;-77
2022/04/03 02:11:28;;;;;;;;;;;2.20;95.30;;;;;;5067896;28;19928;-77
2022/04/03 02:13:54;;;;;;;;;;;2.20;95.30;;;;;;5061586;28;19932;-78
2022/04/03 02:16:23;;;;;;;;;;;2.20;95.30;;;;;;5067585;28;20280;-77
2022/04/03 02:18:50;;;;;;;;;;;2.20;95.30;;;;;;5060979;28;20289;-77
2022/04/03 02:21:17;;;;;;;;;;;2.20;95.30;;;;;;5067727;28;20399;-77
2022/04/03 02:23:44;;;;;;;;;;;2.20;95.30;;;;;;5060214;28;20080;-78
2022/04/03 02:26:10;;;;;;;;;;;2.20;95.30;;;;;;5063195;28;19928;-77
2022/04/03 02:28:39;;;;;;;;;;;2.20;95.30;;;;;;5062971;28;19928;-77
2022/04/03 02:31:05;;;;;;;;;;;2.20;95.30;;;;;;5065535;28;19929;-76
2022/04/03 02:33:33;;;;;;;;;;;2.20;95.30;;;;;;5061507;28;19936;-76
2022/04/03 02:36:00;;;;;;;;;;;2.20;95.30;;;;;;5060537;28;19935;-78
2022/04/03 02:38:26;;;;;;;;;;;2.20;95.30;;;;;;5061609;28;19940;-77
2022/04/03 02:40:53;;;;;;;;;;;2.20;95.30;;;;;;5064566;28;19932;-78
2022/04/03 02:43:20;;;;;;;;;;;2.20;95.30;;;;;;5060664;28;20354;-77
2022/04/03 02:45:46;;;;;;;;;;;2.20;95.30;;;;;;5057430;28;19935;-77
2022/04/03 02:48:13;;;;;;;;;;;2.10;95.30;;;;;;5063805;28;19963;-75
2022/04/03 02:50:41;;;;;;;;;;;2.10;95.30;;;;;;5060981;28;19963;-78
2022/04/03 02:53:07;;;;;;;;;;;2.20;95.40;;;;;;5053110;28;19932;-77
2022/04/03 02:55:34;;;;;;;;;;;2.10;95.30;;;;;;5068407;28;19935;-77
2022/04/03 02:58:01;;;;;;;;;;;2.20;95.30;;;;;;5062988;28;19928;-76
2022/04/03 03:00:27;;;;;;;;;;;2.10;95.30;;;;;;5066656;28;20543;-77
2022/04/03 03:02:54;;;;;;;;;;;2.10;95.30;;;;;;5064853;28;19958;-77
2022/04/03 03:05:20;;;;;;;;;;;2.10;95.30;;;;;;5063952;28;20352;-77
2022/04/03 03:07:49;;;;;;;;;;;2.10;95.30;;;;;;5062134;28;19928;-77
2022/04/03 03:10:16;;;;;;;;;;;2.10;95.30;;;;;;5060611;28;19928;-77
2022/04/03 03:12:44;;;;;;;;;;;2.10;95.30;;;;;;5054259;28;20624;-76
2022/04/03 03:15:11;;;;;;;;;;;2.10;95.30;;;;;;5057152;28;19959;-77
2022/04/03 03:17:38;;;;;;;;;;;2.20;95.40;;;;;;5066289;28;19997;-77
2022/04/03 03:20:06;;;;;;;;;;;2.10;95.30;;;;;;5059569;28;19940;-77
2022/04/03 03:22:33;;;;;;;;;;;2.10;95.30;;;;;;5062375;28;20444;-78
2022/04/03 03:25:01;;;;;;;;;;;2.10;95.30;;;;;;5061538;28;20380;-76
2022/04/03 03:27:28;;;;;;;;;;;2.10;95.30;;;;;;5066225;28;19933;-76
2022/04/03 03:29:54;;;;;;;;;;;2.10;95.30;;;;;;5064378;28;19928;-77
2022/04/03 03:32:21;;;;;;;;;;;2.10;95.30;;;;;;5061183;28;19928;-77
2022/04/03 03:34:47;;;;;;;;;;;2.10;95.30;;;;;;5062881;28;20337;-76
2022/04/03 03:37:14;;;;;;;;;;;2.10;95.30;;;;;;5065944;28;20404;-77
2022/04/03 03:39:40;;;;;;;;;;;2.10;95.30;;;;;;5059525;28;20644;-77
2022/04/03 03:42:08;;;;;;;;;;;2.10;95.30;;;;;;5063959;28;19928;-77
2022/04/03 03:44:35;;;;;;;;;;;2.10;95.40;;;;;;5061277;28;19928;-77
2022/04/03 03:47:02;;;;;;;;;;;2.10;95.40;;;;;;5056346;28;19936;-78
2022/04/03 03:49:28;;;;;;;;;;;2.10;95.40;;;;;;5058107;28;19935;-76
2022/04/03 03:51:55;;;;;;;;;;;2.10;95.70;;;;;;5058918;28;19974;-77
2022/04/03 03:54:21;;;;;;;;;;;2.10;95.40;;;;;;5066486;28;19932;-77
2022/04/03 03:56:48;;;;;;;;;;;2.10;95.40;;;;;;5063871;28;20311;-77
2022/04/03 03:59:16;;;;;;;;;;;2.10;95.40;;;;;;5058773;28;19929;-76
2022/04/03 04:01:42;;;;;;;;;;;2.00;95.40;;;;;;5058232;28;19928;-77
2022/04/03 04:04:09;;;;;;;;;;;2.00;95.40;;;;;;5064622;28;19944;-77
2022/04/03 04:06:36;;;;;;;;;;;2.00;95.40;;;;;;5062568;28;19928;-78
2022/04/03 04:09:03;;;;;;;;;;;2.10;95.40;;;;;;5064610;28;19928;-77
2022/04/03 04:11:30;;;;;;;;;;;2.00;95.40;;;;;;5061539;28;19928;-77
2022/04/03 04:13:56;;;;;;;;;;;2.00;95.40;;;;;;5061592;28;20534;-76
2022/04/03 04:16:24;;;;;;;;;;;2.10;95.40;;;;;;5059077;28;19964;-76
2022/04/03 04:18:51;;;;;;;;;;;2.00;95.40;;;;;;5062507;28;20230;-76
2022/04/03 04:21:17;;;;;;;;;;;2.00;95.40;;;;;;5059831;28;19928;-76
2022/04/03 04:23:44;;;;;;;;;;;2.00;95.40;;;;;;5055521;28;20613;-76
2022/04/03 04:26:11;;;;;;;;;;;2.00;95.40;;;;;;5058506;28;19936;-76
2022/04/03 04:28:37;;;;;;;;;;;2.00;95.30;;;;;;5061409;28;19932;-76
2022/04/03 04:31:04;;;;;;;;;;;2.00;95.40;;;;;;5064056;28;19936;-76
2022/04/03 04:33:32;;;;;;;;;;;2.00;95.40;;;;;;5062247;28;19936;-76
2022/04/03 04:35:58;;;;;;;;;;;2.00;95.40;;;;;;5062946;28;19935;-76
2022/04/03 04:38:25;;;;;;;;;;;2.00;95.30;;;;;;5061888;28;20431;-76
2022/04/03 04:40:52;;;;;;;;;;;2.00;95.40;;;;;;5062618;28;20387;-76
2022/04/03 04:43:18;;;;;;;;;;;2.00;95.40;;;;;;5053602;28;19968;-76
2022/04/03 04:45:45;;;;;;;;;;;2.00;95.40;;;;;;5055781;28;19932;-76
2022/04/03 04:48:11;;;;;;;;;;;2.00;95.40;;;;;;5059214;28;19932;-76
2022/04/03 04:50:39;;;;;;;;;;;2.00;95.40;;;;;;5055909;28;19933;-75
2022/04/03 04:53:06;;;;;;;;;;;2.00;95.40;;;;;;5057093;28;19931;-76
2022/04/03 04:55:32;;;;;;;;;;;2.00;95.40;;;;;;5051764;28;20004;-76
2022/04/03 04:57:59;;;;;;;;;;;2.00;95.40;;;;;;5060037;28;19928;-75
2022/04/03 05:00:28;;;;;;;;;;;2.00;95.40;;;;;;5059308;28;20242;-76
2022/04/03 05:02:55;;;;;;;;;;;2.00;95.40;;;;;;5060412;28;19947;-76
2022/04/03 05:05:23;;;;;;;;;;;2.00;95.40;;;;;;5061798;28;19936;-76
2022/04/03 05:07:52;;;;;;;;;;;2.00;95.40;;;;;;5056394;28;19929;-75
2022/04/03 05:10:19;;;;;;;;;;;2.00;95.40;;;;;;5061225;28;19971;-76
2022/04/03 05:12:45;;;;;;;;;;;2.00;95.40;;;;;;5061455;28;19929;-76
2022/04/03 05:15:12;;;;;;;;;;;2.00;95.40;;;;;;5060741;28;20010;-76
2022/04/03 05:17:39;;;;;;;;;;;2.00;95.40;;;;;;5062935;28;19968;-76
2022/04/03 05:20:06;;;;;;;;;;;2.00;95.40;;;;;;5060250;28;19951;-76
2022/04/03 05:22:33;;;;;;;;;;;2.00;95.40;;;;;;5057290;28;19929;-75
2022/04/03 05:25:03;;;;;;;;;;;2.00;95.40;;;;;;5059815;28;20395;-75
2022/04/03 05:27:30;;;;;;;;;;;2.00;95.40;;;;;;5062267;28;20292;-75
2022/04/03 05:29:56;;;;;;;;;;;2.00;95.40;;;;;;5062300;28;19932;-76
2022/04/03 05:32:27;;;;;;;;;;;2.00;95.40;;;;;;5059838;28;20383;-76
2022/04/03 05:34:53;;;;;;;;;;;2.00;95.40;;;;;;5059123;28;20074;-76
2022/04/03 05:37:20;;;;;;;;;;;2.00;95.40;;;;;;5061163;28;19928;-76
2022/04/03 05:39:47;;;;;;;;;;;2.00;95.40;;;;;;5061714;28;19955;-76
2022/04/03 05:42:14;;;;;;;;;;;2.00;95.40;;;;;;5064170;28;19928;-76
2022/04/03 05:44:41;;;;;;;;;;;2.00;95.40;;;;;;5062293;28;19929;-73
2022/04/03 05:47:08;;;;;;;;;;;2.00;95.40;;;;;;5064473;28;20502;-76
2022/04/03 05:49:34;;;;;;;;;;;2.00;95.40;;;;;;5058636;28;19932;-75
2022/04/03 05:52:01;;;;;;;;;;;2.00;95.40;;;;;;5060463;28;19929;-76
2022/04/03 05:54:27;;;;;;;;;;;2.00;95.40;;;;;;5066414;28;19932;-75
2022/04/03 05:56:55;;;;;;;;;;;2.00;95.40;;;;;;5060933;28;20372;-76
2022/04/03 05:59:23;;;;;;;;;;;2.00;95.40;;;;;;5060944;28;19934;-75
2022/04/03 06:01:49;;;;;;;;;;;2.00;95.40;;;;;;5062736;28;19936;-76
2022/04/03 06:04:16;;;;;;;;;;;2.00;95.40;;;;;;5064850;28;19929;-76
2022/04/03 06:06:43;;;;;;;;;;;2.00;95.40;;;;;;5066363;28;19974;-76
2022/04/03 06:09:09;;;;;;;;;;;2.00;95.40;;;;;;5060592;28;19928;-76
2022/04/03 06:11:36;;;;;;;;;;;2.00;95.40;;;;;;5064355;28;19936;-76
2022/04/03 06:14:02;;;;;;;;;;;2.00;95.40;;;;;;5058824;28;20328;-76
2022/04/03 06:16:30;;;;;;;;;;;2.00;95.40;;;;;;5064279;28;19928;-75
2022/04/03 06:18:57;;;;;;;;;;;2.00;95.40;;;;;;5059695;28;19929;-77
2022/04/03 06:21:23;;;;;;;;;;;2.00;95.40;;;;;;5064807;28;19935;-75
2022/04/03 06:23:50;;;;;;;;;;;2.00;95.40;;;;;;5064503;28;20381;-76
2022/04/03 06:26:17;;;;;;;;;;;2.00;95.40;;;;;;5063261;28;19940;-76
2022/04/03 06:28:44;;;;;;;;;;;2.00;95.40;;;;;;5057655;28;19928;-75
2022/04/03 06:31:11;;;;;;;;;;;2.00;95.40;;;;;;5063311;28;20407;-75
2022/04/03 06:33:39;;;;;;;;;;;2.00;95.40;;;;;;5060446;28;19933;-75
2022/04/03 06:36:06;;;;;;;;;;;2.00;95.40;;;;;;5055701;28;19928;-76
2022/04/03 06:38:33;;;;;;;;;;;2.00;95.40;;;;;;5058590;28;19935;-75
2022/04/03 06:40:59;;;;;;;;;;;2.00;95.30;;;;;;5062294;28;19933;-76
2022/04/03 06:43:27;;;;;;;;;;;2.00;95.40;;;;;;5061823;28;19933;-77
2022/04/03 06:45:54;;;;;;;;;;;2.00;95.40;;;;;;5064302;28;20346;-76
2022/04/03 06:48:21;;;;;;;;;;;2.00;95.30;;;;;;5070161;28;20348;-76
2022/04/03 06:50:49;;;;;;;;;;;2.00;95.30;;;;;;5064772;28;20014;-76
2022/04/03 06:53:15;;;;;;;;;;;2.10;95.30;;;;;;5065348;28;19941;-75
2022/04/03 06:55:42;;;;;;;;;;;2.00;95.30;;;;;;5062685;28;19928;-76
2022/04/03 06:58:09;;;;;;;;;;;2.00;95.20;;;;;;5062812;28;19932;-76
2022/04/03 07:00:37;;;;;;;;;;;2.00;95.20;;;;;;5062060;28;19928;-76
2022/04/03 07:03:03;;;;;;;;;;;2.10;95.20;;;;;;5067339;28;19944;-76
2022/04/03 07:05:30;;;;;;;;;;;2.10;95.20;;;;;;5061708;28;20365;-76
2022/04/03 07:07:58;;;;;;;;;;;2.00;95.10;;;;;;5060119;28;20328;-76
2022/04/03 07:10:25;;;;;;;;;;;2.00;95.10;;;;;;5057895;28;19929;-76
2022/04/03 07:12:51;;;;;;;;;;;2.00;95.10;;;;;;5063704;28;19983;-76
2022/04/03 07:15:18;;;;;;;;;;;2.00;95.00;;;;;;5065133;28;19932;-75
2022/04/03 07:17:45;;;;;;;;;;;2.00;95.10;;;;;;5055445;28;20494;-75
2022/04/03 07:20:13;;;;;;;;;;;2.10;95.00;;;;;;5057647;28;20320;-75
2022/04/03 07:22:41;;;;;;;;;;;2.10;95.00;;;;;;5054107;28;19932;-75
2022/04/03 07:25:09;;;;;;;;;;;2.10;95.00;;;;;;5060040;28;19928;-75
2022/04/03 07:27:36;;;;;;;;;;;2.00;95.00;;;;;;5061449;28;20387;-77
2022/04/03 07:30:03;;;;;;;;;;;2.10;94.90;;;;;;5056831;28;19928;-75
2022/04/03 07:32:29;;;;;;;;;;;2.10;94.90;;;;;;5059884;28;19936;-78
2022/04/03 07:34:56;;;;;;;;;;;2.10;94.90;;;;;;5060547;28;20385;-77
2022/04/03 07:37:22;;;;;;;;;;;2.10;94.80;;;;;;5057175;28;19929;-78
2022/04/03 07:39:49;;;;;;;;;;;2.10;94.80;;;;;;5060967;28;19929;-78
2022/04/03 07:42:17;;;;;;;;;;;2.10;94.80;;;;;;5058763;28;20290;-76
2022/04/03 07:44:44;;;;;;;;;;;2.10;94.70;;;;;;5057456;28;19932;-76
2022/04/03 07:47:11;;;;;;;;;;;2.20;94.70;;;;;;5053146;28;19928;-78
2022/04/03 07:49:37;;;;;;;;;;;2.10;94.60;;;;;;5052255;28;19939;-77
2022/04/03 07:52:04;;;;;;;;;;;2.20;94.60;;;;;;5059964;28;20432;-77
2022/04/03 07:54:31;;;;;;;;;;;2.20;94.60;;;;;;5057673;28;19929;-78
2022/04/03 07:56:57;;;;;;;;;;;2.20;94.60;;;;;;5059692;28;19928;-77
2022/04/03 07:59:25;;;;;;;;;;;2.20;94.50;;;;;;5059314;28;19928;-77
2022/04/03 08:01:52;;;;;;;;;;;2.20;94.40;;;;;;5066614;28;19929;-76
2022/04/03 08:04:19;;;;;;;;;;;2.20;94.50;;;;;;5059879;28;20030;-75
2022/04/03 08:06:45;;;;;;;;;;;2.30;94.40;;;;;;5059031;28;19940;-75
2022/04/03 08:09:12;;;;;;;;;;;2.30;94.40;;;;;;5062446;28;19935;-75
2022/04/03 08:11:41;;;;;;;;;;;2.30;94.30;;;;;;5056538;28;19929;-75
2022/04/03 08:14:07;;;;;;;;;;;2.30;94.30;;;;;;5061718;28;19954;-75
2022/04/03 08:16:35;;;;;;;;;;;2.30;94.30;;;;;;5051091;28;19936;-74
2022/04/03 08:19:03;;;;;;;;;;;2.30;94.30;;;;;;5056198;28;19929;-75
2022/04/03 08:21:29;;;;;;;;;;;2.40;94.30;;;;;;5052899;28;20003;-74
2022/04/03 08:23:56;;;;;;;;;;;2.40;94.20;;;;;;5062113;28;20293;-75
2022/04/03 08:26:25;;;;;;;;;;;2.40;94.20;;;;;;5054155;28;19939;-75
2022/04/03 08:28:52;;;;;;;;;;;2.50;94.30;;;;;;5063256;28;19928;-75
2022/04/03 08:31:19;;;;;;;;;;;2.50;94.30;;;;;;5062978;28;19932;-75
2022/04/03 08:33:48;;;;;;;;;;;2.50;94.30;;;;;;5058275;28;20477;-75
2022/04/03 08:36:14;;;;;;;;;;;2.60;94.30;;;;;;5055659;28;19957;-75
2022/04/03 08:38:41;;;;;;;;;;;2.60;94.20;;;;;;5059121;28;19940;-75
2022/04/03 08:41:08;;;;;;;;;;;2.70;94.10;;;;;;5061554;28;19928;-76
2022/04/03 08:43:35;;;;;;;;;;;2.70;94.00;;;;;;5058923;28;19928;-75
2022/04/03 08:46:02;;;;;;;;;;;2.80;93.80;;;;;;5060071;28;20428;-75
2022/04/03 08:48:31;;;;;;;;;;;2.80;93.60;;;;;;5055759;28;19933;-73
2022/04/03 08:51:01;;;;;;;;;;;2.90;93.50;;;;;;5055508;28;19959;-76
2022/04/03 08:53:30;;;;;;;;;;;3.00;93.20;;;;;;5069422;28;19928;-75
2022/04/03 08:55:57;;;;;;;;;;;3.00;93.00;;;;;;5064790;28;19939;-74
2022/04/03 08:58:23;;;;;;;;;;;3.00;92.90;;;;;;5064804;28;19928;-75
2022/04/03 09:00:50;;;;;;;;;;;3.10;92.90;;;;;;5055002;28;19932;-75
2022/04/03 09:03:16;;;;;;;;;;;3.10;92.90;;;;;;5070920;28;20326;-76
2022/04/03 09:05:47;;;;;;;;;;;3.20;92.80;;;;;;5066226;28;19928;-77
2022/04/03 09:08:14;;;;;;;;;;;3.20;92.70;;;;;;5065624;28;19937;-76
2022/04/03 09:10:42;;;;;;;;;;;3.20;92.70;;;;;;5062832;28;19960;-77
2022/04/03 09:13:09;;;;;;;;;;;3.30;92.60;;;;;;5068620;28;20455;-76
2022/04/03 09:15:35;;;;;;;;;;;3.30;92.40;;;;;;5061942;28;19944;-75
2022/04/03 09:18:03;;;;;;;;;;;3.30;92.10;;;;;;5065047;28;20779;-74
2022/04/03 09:20:30;;;;;;;;;;;3.40;91.90;;;;;;5053315;28;19929;-75
2022/04/03 09:22:59;;;;;;;;;;;3.40;91.90;;;;;;5064057;28;19982;-75
2022/04/03 09:25:28;;;;;;;;;;;3.40;91.80;;;;;;5066815;28;19991;-75
2022/04/03 09:27:55;;;;;;;;;;;3.40;91.70;;;;;;5059515;28;19933;-75
2022/04/03 09:30:23;;;;;;;;;;;3.40;91.70;;;;;;5065653;28;19940;-75
2022/04/03 09:32:50;;;;;;;;;;;3.40;91.60;;;;;;5058565;28;19928;-75
2022/04/03 09:35:17;;;;;;;;;;;3.40;91.60;;;;;;5064303;28;19928;-75
2022/04/03 09:38:03;;;;;;;;;;;3.40;91.60;;;;;;5058050;28;19924;-74
2022/04/03 09:40:31;;;;;;;;;;;3.40;91.50;;;;;;5063376;28;19935;-75
2022/04/03 09:43:11;;;;;;;;;;;3.40;91.50;;;;;;5061775;28;19935;-75
2022/04/03 09:45:43;;;;;;;;;;;3.40;91.40;;;;;;5060274;28;19929;-75
2022/04/03 09:48:19;;;;;;;;;;;3.40;91.30;;;;;;5062019;28;19928;-75
2022/04/03 09:50:54;;;;;;;;;;;3.50;91.30;;;;;;5065193;28;19968;-76
2022/04/03 09:53:21;;;;;;;;;;;3.40;91.20;;;;;;5061247;28;19928;-72
2022/04/03 09:55:49;;;;;;;;;;;3.40;91.30;;;;;;5070216;28;19931;-72
2022/04/03 09:58:16;;;;;;;;;;;3.40;91.40;;;;;;5054919;28;20926;-75
2022/04/03 10:00:44;;;;;;;;;;;3.40;91.30;;;;;;5064461;28;19928;-75
2022/04/03 10:03:11;;;;;;;;;;;3.50;91.40;;;;;;5060639;28;19928;-75
2022/04/03 10:05:38;;;;;;;;;;;3.40;91.40;;;;;;5062542;28;19933;-76
2022/04/03 10:08:05;;;;;;;;;;;3.50;91.30;;;;;;5064432;28;19928;-76
2022/04/03 10:10:33;;;;;;;;;;;3.50;91.40;;;;;;5058701;28;19928;-76
2022/04/03 10:13:02;;;;;;;;;;;3.50;91.40;;;;;;5066171;28;20265;-76
2022/04/03 10:15:29;;;;;;;;;;;3.50;91.40;;;;;;5059917;28;19935;-75
2022/04/03 10:17:56;;;;;;;;;;;3.50;91.40;;;;;;5062676;28;20277;-77
2022/04/03 10:20:25;;;;;;;;;;;3.60;91.50;;;;;;5058228;28;20335;-76
2022/04/03 10:22:54;;;;;;;;;;;3.50;91.40;;;;;;5060785;28;19936;-76
2022/04/03 10:25:37;;;;;;;;;;;3.50;91.30;;;;;;5053543;28;20167;-76
2022/04/03 10:28:06;;;;;;;;;;;3.50;91.30;;;;;;5059015;28;20525;-77
2022/04/03 10:30:37;;;;;;;;;;;3.50;91.30;;;;;;5058989;28;20045;-76
2022/04/03 10:33:03;;;;;;;;;;;3.60;91.30;;;;;;5050885;28;19942;-74
2022/04/03 10:35:30;;;;;;;;;;;3.50;91.30;;;;;;5062488;28;19939;-76
2022/04/03 10:38:01;;;;;;;;;;;3.50;91.30;;;;;;5057652;28;19932;-75
2022/04/03 10:40:29;;;;;;;;;;;3.60;91.20;;;;;;5063082;28;19940;-76
2022/04/03 10:42:58;;;;;;;;;;;3.60;91.20;;;;;;5060207;28;19928;-75
2022/04/03 10:45:27;;;;;;;;;;;3.60;91.20;;;;;;5060092;28;21555;-75
2022/04/03 10:48:08;;;;;;;;;;;3.60;91.20;;;;;;5058412;28;21137;-75
2022/04/03 10:50:55;;;;;;;;;;;3.60;91.40;;;;;;5053399;28;19924;-74
2022/04/03 10:53:24;;;;;;;;;;;3.60;91.20;;;;;;5066206;28;19936;-74
2022/04/03 10:55:56;;;;;;;;;;;3.60;91.20;;;;;;5059878;28;19932;-74
2022/04/03 10:58:22;;;;;;;;;;;3.70;91.20;;;;;;5062358;28;19963;-76
2022/04/03 11:00:51;;;;;;;;;;;3.70;91.20;;;;;;5061356;28;19975;-76
2022/04/03 11:03:32;;;;;;;;;;;3.70;91.20;;;;;;5061580;28;19990;-77
2022/04/03 11:06:18;;;;;;;;;;;3.70;91.20;;;;;;5062182;28;19960;-75
2022/04/03 11:08:45;;;;;;;;;;;3.70;91.20;;;;;;5062067;28;19939;-76
2022/04/03 11:11:13;;;;;;;;;;;3.70;91.30;;;;;;5056489;28;19929;-76
2022/04/03 11:13:40;;;;;;;;;;;3.70;91.20;;;;;;5058172;28;19939;-76
2022/04/03 11:16:09;;;;;;;;;;;3.80;91.10;;;;;;5065160;28;19935;-77
2022/04/03 11:18:37;;;;;;;;;;;3.70;91.10;;;;;;5062194;28;19935;-73
2022/04/03 11:21:07;;;;;;;;;;;3.80;91.00;;;;;;5063040;28;20292;-74
2022/04/03 11:23:35;;;;;;;;;;;3.80;90.90;;;;;;5059078;28;19931;-73
2022/04/03 11:26:02;;;;;;;;;;;3.80;90.80;;;;;;5066066;28;20670;-74
2022/04/03 11:28:29;;;;;;;;;;;3.80;90.80;;;;;;5061467;28;19947;-74
2022/04/03 11:30:56;;;;;;;;;;;3.80;90.80;;;;;;5060609;28;20300;-74
2022/04/03 11:33:23;;;;;;;;;;;3.90;90.80;;;;;;5065130;28;20328;-74
2022/04/03 11:35:50;;;;;;;;;;;3.90;90.80;;;;;;5061248;28;19928;-73
2022/04/03 11:38:17;;;;;;;;;;;3.80;90.70;;;;;;5065491;28;19939;-73
2022/04/03 11:40:44;;;;;;;;;;;3.90;90.40;;;;;;5059898;28;19944;-73
2022/04/03 11:43:12;;;;;;;;;;;3.90;90.40;;;;;;5062537;28;20015;-74
2022/04/03 11:45:38;;;;;;;;;;;3.90;90.40;;;;;;5060727;28;19929;-73
2022/04/03 11:48:18;;;;;;;;;;;4.00;90.30;;;;;;5062349;28;19928;-73
2022/04/03 11:50:46;;;;;;;;;;;4.00;90.40;;;;;;5062210;28;19933;-73
2022/04/03 11:53:12;;;;;;;;;;;4.00;90.40;;;;;;5063743;28;19940;-73
2022/04/03 11:55:39;;;;;;;;;;;4.10;90.40;;;;;;5066274;28;19934;-73
2022/04/03 11:58:05;;;;;;;;;;;4.10;90.40;;;;;;5064820;28;19935;-73
2022/04/03 12:00:33;;;;;;;;;;;4.10;90.30;;;;;;5073516;28;19940;-73
2022/04/03 12:02:59;;;;;;;;;;;4.10;90.20;;;;;;5065507;22;19952;-79
2022/04/03 12:05:26;;;;;;;;;;;4.20;90.20;;;;;;5058701;28;20455;-78
2022/04/03 12:07:54;;;;;;;;;;;4.20;90.00;;;;;;5053327;28;20008;-78
2022/04/03 12:10:24;;;;;;;;;;;4.30;89.90;;;;;;5053467;28;19929;-78
2022/04/03 12:12:51;;;;;;;;;;;4.30;89.40;;;;;;5053108;28;19928;-79
2022/04/03 12:15:20;;;;;;;;;;;4.30;89.20;;;;;;5052339;28;20019;-78
2022/04/03 12:17:47;;;;;;;;;;;4.30;88.70;;;;;;5054597;28;19940;-79
2022/04/03 12:20:13;;;;;;;;;;;4.40;88.70;;;;;;5053941;28;20596;-78
2022/04/03 12:22:41;;;;;;;;;;;4.40;88.40;;;;;;5052778;28;19958;-78
2022/04/03 12:25:09;;;;;;;;;;;4.40;88.60;;;;;;5050736;28;19936;-78
2022/04/03 12:27:37;;;;;;;;;;;4.40;88.10;;;;;;5056950;28;20320;-79
2022/04/03 12:30:04;;;;;;;;;;;4.50;87.70;;;;;;5059997;28;19936;-79
2022/04/03 12:32:35;;;;;;;;;;;4.50;87.60;;;;;;5052815;28;19975;-78
2022/04/03 12:35:02;;;;;;;;;;;4.50;87.60;;;;;;5053696;28;19936;-79
2022/04/03 12:37:32;;;;;;;;;;;4.50;86.90;;;;;;5065333;28;19929;-79
2022/04/03 12:40:03;;;;;;;;;;;4.50;86.40;;;;;;5057110;28;19929;-78
2022/04/03 12:42:33;;;;;;;;;;;4.50;86.20;;;;;;5059585;28;19939;-79
2022/04/03 12:45:00;;;;;;;;;;;4.50;87.00;;;;;;5058330;28;19951;-78
2022/04/03 12:47:31;;;;;;;;;;;4.50;86.00;;;;;;5056652;28;19939;-78
2022/04/03 12:50:18;;;;;;;;;;;4.50;85.90;;;;;;5062339;28;19929;-78
2022/04/03 12:52:46;;;;;;;;;;;4.60;86.00;;;;;;5062297;28;19944;-78
2022/04/03 12:55:33;;;;;;;;;;;4.60;85.70;;;;;;5061636;28;19928;-79
2022/04/03 12:58:28;;;;;;;;;;;4.60;84.00;;;;;;5059017;28;19928;-76
2022/04/03 13:00:57;;;;;;;;;;;4.80;76.30;;;;;;5058247;28;19935;-77
2022/04/03 13:03:30;;;;;;;;;;;4.90;77.00;;;;;;5060976;28;19929;-77
2022/04/03 13:05:57;;;;;;;;;;;4.90;78.50;;;;;;5056118;28;20515;-76
2022/04/03 13:08:23;;;;;;;;;;;4.90;78.80;;;;;;5053385;28;20293;-77
2022/04/03 13:10:50;;;;;;;;;;;4.90;79.20;;;;;;5054399;28;19935;-77
2022/04/03 13:13:19;;;;;;;;;;;4.90;80.00;;;;;;5054956;28;19932;-75
2022/04/03 13:15:46;;;;;;;;;;;4.90;80.30;;;;;;5052973;28;19928;-77
2022/04/03 13:18:14;;;;;;;;;;;4.90;81.30;;;;;;5057926;28;19929;-77
2022/04/03 13:20:40;;;;;;;;;;;4.90;82.30;;;;;;5057735;28;20300;-78
2022/04/03 13:23:07;;;;;;;;;;;4.90;82.30;;;;;;5060574;28;19975;-77
2022/04/03 13:25:34;;;;;;;;;;;4.90;82.20;;;;;;5056402;28;19935;-77
2022/04/03 13:28:00;;;;;;;;;;;4.90;83.40;;;;;;5057622;28;20104;-77
2022/04/03 13:30:27;;;;;;;;;;;4.90;83.30;;;;;;5057208;28;20102;-76
2022/04/03 13:32:53;;;;;;;;;;;4.90;83.90;;;;;;5053654;28;19929;-76
2022/04/03 13:35:23;;;;;;;;;;;4.90;83.60;;;;;;5056280;28;19929;-77
2022/04/03 13:37:51;;;;;;;;;;;4.90;83.80;;;;;;5054326;28;19929;-77
2022/04/03 13:40:17;;;;;;;;;;;4.90;84.30;;;;;;5054056;28;19939;-77
2022/04/03 13:42:44;;;;;;;;;;;5.00;84.20;;;;;;5057332;28;19928;-77
2022/04/03 13:45:10;;;;;;;;;;;5.00;83.90;;;;;;5058952;28;19940;-77
2022/04/03 13:47:37;;;;;;;;;;;5.00;83.40;;;;;;5056425;28;20092;-77
2022/04/03 13:50:04;;;;;;;;;;;5.10;83.70;;;;;;5057477;28;19928;-77
2022/04/03 13:52:32;;;;;;;;;;;5.10;82.80;;;;;;5057387;28;19929;-77
2022/04/03 13:54:58;;;;;;;;;;;5.20;84.00;;;;;;5053700;28;19956;-78
2022/04/03 13:57:25;;;;;;;;;;;5.20;83.40;;;;;;5054829;28;19929;-77
2022/04/03 13:59:52;;;;;;;;;;;5.30;84.00;;;;;;5052060;28;19936;-77
2022/04/03 14:02:19;;;;;;;;;;;5.30;83.30;;;;;;5055535;28;19986;-77
2022/04/03 14:04:45;;;;;;;;;;;5.40;83.10;;;;;;5060352;28;19940;-77
2022/04/03 14:07:12;;;;;;;;;;;5.50;82.40;;;;;;5055800;28;19939;-77
2022/04/03 14:09:40;;;;;;;;;;;5.50;81.20;;;;;;5052118;28;19929;-77
2022/04/03 14:12:07;;;;;;;;;;;5.60;81.90;;;;;;5049572;28;19936;-76
2022/04/03 14:14:34;;;;;;;;;;;5.60;81.90;;;;;;5057906;28;19928;-77
2022/04/03 14:17:00;;;;;;;;;;;5.70;80.50;;;;;;5048187;28;19936;-77
2022/04/03 14:19:27;;;;;;;;;;;5.80;81.60;;;;;;5057232;28;19932;-77
2022/04/03 14:21:54;;;;;;;;;;;5.80;81.70;;;;;;5048957;28;19928;-77
2022/04/03 14:24:20;;;;;;;;;;;5.90;81.30;;;;;;5058071;28;20008;-77
2022/04/03 14:26:48;;;;;;;;;;;5.90;80.40;;;;;;5060230;28;20494;-77
2022/04/03 14:29:15;;;;;;;;;;;6.00;81.20;;;;;;5057593;28;20656;-77
2022/04/03 14:31:41;;;;;;;;;;;6.10;78.80;;;;;;5057922;28;19940;-77
2022/04/03 14:34:08;;;;;;;;;;;6.10;77.10;;;;;;5061068;28;19935;-77